Latest Weather Observations for Mount Read

IDT60801

Issued at 10:21 pm EST Friday 26 April 2019 (issued every 10 minutes, with the page automatically refreshed every 10 minutes)

About weather observations | Map of weather stations | Latest weather observations for TAS | Other Formats
Station Details ID: 097085 Name: MOUNT READ Lat: -41.84 Lon: 145.54 Height: 1119.5 m
Data from the previous 72 hours. | See also: Recent months at Mount Read
Date/Time
EST
Temp
°C
App
Temp
°C
Dew
Point
°C
Rel
Hum
%
Delta-T
°C
Wind Press
QNH
hPa
Press
MSL
hPa
Rain since
9am
mm
Dir  Spd
km/h
Gust
km/h
Spd
kts
Gust
kts
26/10:00pm -0.5 -11.7 -0.6 99 0.0 SW 48 61 26 33 1012.7 1012.7 0.6
26/09:42pm -0.3 -10.5 -0.4 99 0.0 WSW 43 65 23 35 1012.9 1012.9 0.6
26/09:30pm -0.6 -11.4 -0.7 99 0.0 SW 46 57 25 31 1012.8 1012.8 0.6
26/09:00pm -0.5 -11.7 -0.6 99 0.0 SW 48 61 26 33 1012.8 1012.8 0.6
26/08:30pm -0.4 -10.6 -0.5 99 0.0 SW 43 54 23 29 1012.9 1012.9 0.6
26/08:00pm -0.4 -9.9 -0.5 99 0.0 WSW 39 59 21 32 1012.5 1012.6 0.6
26/07:59pm -0.4 -10.2 -0.5 99 0.0 WSW 41 59 22 32 1012.5 1012.6 0.6
26/07:30pm -0.9 -12.9 -1.0 99 0.0 SW 52 69 28 37 1011.6 1011.7 0.6
26/07:10pm -0.8 -11.1 -0.9 99 0.0 SW 43 63 23 34 1011.5 1011.5 0.6
26/07:00pm -0.8 -12.0 -0.9 99 0.0 SW 48 61 26 33 1011.3 1011.3 0.6
26/06:30pm -0.8 -11.7 -0.9 99 0.0 SW 46 59 25 32 1010.5 1010.5 0.6
26/06:10pm -0.6 -11.4 -0.7 99 0.0 SW 46 69 25 37 1009.5 1009.5 0.6
26/06:00pm -0.8 -9.9 -0.9 99 0.0 SW 37 52 20 28 1010.1 1010.1 0.6
26/05:47pm -0.9 -12.5 -1.0 99 0.0 SW 50 69 27 37 1009.4 1009.4 0.6
26/05:37pm -1.2 -11.7 -1.3 99 0.0 SW 44 70 24 38 1009.0 1008.9 0.6
26/05:35pm -1.0 -10.9 -1.1 99 0.0 SW 41 63 22 34 1009.4 1009.4 0.6
26/05:30pm -1.1 -11.0 -1.2 99 0.0 SW 41 57 22 31 1009.4 1009.4 0.6
26/05:12pm -0.7 -11.5 -0.8 99 0.0 WSW 46 67 25 36 1009.0 1008.9 0.6
26/05:00pm -0.6 -12.9 -0.7 99 0.0 SW 54 67 29 36 1008.8 1008.7 0.6
26/04:37pm -0.8 -11.3 -0.9 99 0.0 SW 44 65 24 35 1008.2 1008.1 0.6
26/04:30pm -0.6 -10.9 -0.7 99 0.0 SW 43 56 23 30 1008.6 1008.6 0.6
26/04:00pm -0.6 -11.0 -0.7 99 0.0 SW 44 65 24 35 1007.6 1007.5 0.6
26/03:48pm -0.8 -11.3 -0.9 99 0.0 SW 44 65 24 35 1007.9 1007.8 0.6
26/03:30pm -1.1 -13.1 -1.2 99 0.0 SW 52 67 28 36 1007.1 1007.0 0.6
26/03:15pm -0.9 -13.7 -1.0 99 0.0 SW 56 82 30 44 1006.3 1006.2 0.6
26/03:11pm -0.6 -11.4 -0.7 99 0.0 SW 46 72 25 39 1006.2 1006.0 0.6
26/03:00pm -0.7 -11.0 -0.8 99 0.0 SW 43 65 23 35 1006.6 1006.5 0.4
26/02:51pm -0.8 -13.2 -0.9 99 0.0 SW 54 72 29 39 1006.5 1006.4 0.4
26/02:46pm -0.8 -13.2 -0.9 99 0.0 SW 54 76 29 41 1006.0 1005.8 0.4
26/02:34pm -1.0 -10.5 -1.1 99 0.0 SW 39 59 21 32 1006.0 1005.8 0.4
26/02:30pm -0.9 -10.4 -1.0 99 0.0 SW 39 56 21 30 1006.1 1005.9 0.4
26/02:00pm -0.7 -11.9 -0.8 99 0.0 WSW 48 70 26 38 1005.6 1005.5 0.2
26/01:30pm -0.7 -11.9 -0.8 99 0.0 WSW 48 78 26 42 1005.2 1005.0 0.2
26/01:18pm -0.5 -10.4 -0.6 99 0.0 WSW 41 59 22 32 1005.5 1005.4 0.0
26/01:00pm -0.8 -10.3 -0.9 99 0.0 WSW 39 57 21 31 1005.2 1005.0 0.0
26/12:58pm -0.8 -9.9 -0.9 99 0.0 WSW 37 54 20 29 1005.2 1005.0 0.0
26/12:57pm -0.7 -9.8 -0.8 99 0.0 WSW 37 52 20 28 1005.3 1005.1 0.0
26/12:30pm -1.1 -12.0 -1.2 99 0.0 SW 46 67 25 36 1005.3 1005.1 0.0
26/12:04pm -0.7 -12.7 -0.8 99 0.0 SW 52 70 28 38 1004.5 1004.3 0.0
26/12:00pm -0.7 -13.1 -0.8 99 0.0 SW 54 70 29 38 1004.6 1004.4 0.0
26/11:49am -0.8 -13.2 -0.9 99 0.0 SW 54 69 29 37 1004.7 1004.6 0.0
26/11:30am -0.4 -11.6 -0.5 99 0.0 W 48 69 26 37 1004.6 1004.4 0.0
26/11:23am -0.1 -9.1 -0.2 99 0.0 WSW 37 57 20 31 1004.5 1004.3 0.0
26/11:00am -0.3 -11.5 -0.4 99 0.0 WSW 48 61 26 33 1004.6 1004.4 0.0
26/10:31am -0.5 -12.1 -0.6 99 0.0 WSW 50 70 27 38 1004.4 1004.2 0.0
26/10:30am -0.6 -11.8 -0.7 99 0.0 WSW 48 67 26 36 1004.5 1004.3 0.0
26/10:00am -0.7 -10.2 -0.8 99 0.0 WSW 39 63 21 34 1004.2 1004.0 0.0
26/09:30am -1.3 -13.4 -1.4 99 0.0 W 52 78 28 42 1004.2 1004.0 0.0
26/09:29am -1.3 -13.4 -1.4 99 0.0 W 52 78 28 42 1004.1 1003.9 0.0
26/09:28am -1.2 -12.9 -1.3 99 0.0 W 50 78 27 42 1004.0 1003.8 0.0
26/09:23am -0.5 -10.0 -0.6 99 0.0 W 39 70 21 38 1004.2 1004.0 0.0
26/09:17am -0.3 -9.8 -0.4 99 0.0 W 39 52 21 28 1004.3 1004.1 0.0
26/09:08am -0.5 -10.7 -0.6 99 0.0 WSW 43 63 23 34 1004.1 1003.9 0.0
26/09:00am -0.8 -11.7 -0.9 99 0.0 WSW 46 63 25 34 1004.3 1004.1 46.6
26/08:30am -0.8 -11.3 -0.9 99 0.0 W 44 72 24 39 1003.7 1003.5 46.6
26/08:23am -0.6 -10.5 -0.7 99 0.0 W 41 72 22 39 1003.7 1003.5 46.6
26/08:00am -0.9 -11.8 -1.0 99 0.0 WSW 46 63 25 34 1003.5 1003.3 46.6
26/07:58am -1.0 -12.3 -1.1 99 0.0 WSW 48 63 26 34 1003.5 1003.3 46.6
26/07:42am -0.8 -12.8 -0.9 99 0.0 W 52 83 28 45 1002.8 1002.6 46.6
26/07:41am -0.7 -12.3 -0.8 99 0.0 W 50 83 27 45 1002.4 1002.2 46.6
26/07:36am -0.3 -10.7 -0.4 99 0.0 W 44 65 24 35 1003.0 1002.7 46.6
26/07:30am -0.4 -11.2 -0.5 99 0.0 W 46 59 25 32 1003.0 1002.7 46.6
26/07:09am -0.2 -10.0 -0.3 99 0.0 W 41 61 22 33 1002.8 1002.6 46.6
26/07:00am -0.5 -10.7 -0.6 99 0.0 W 43 57 23 31 1002.8 1002.6 46.6
26/06:30am -0.8 -13.7 -0.9 99 0.0 W 57 78 31 42 1002.3 1002.0 46.6
26/06:06am -0.6 -11.4 -0.7 99 0.0 W 46 82 25 44 1002.1 1001.8 46.6
26/06:02am -0.3 -10.1 -0.4 99 0.0 W 41 59 22 32 1002.2 1001.9 46.6
26/06:00am -0.3 -10.1 -0.4 99 0.0 WSW 41 57 22 31 1002.3 1002.0 46.6
26/05:31am -0.3 -10.7 -0.4 99 0.0 W 44 65 24 35 1002.2 1001.9 46.6
26/05:30am -0.3 -11.1 -0.4 99 0.0 WSW 46 65 25 35 1002.2 1001.9 46.6
26/05:00am 0.0 -11.5 -0.1 99 0.0 W 50 72 27 39 1001.9 1001.7 46.6
26/04:38am 0.0 -9.0 -0.1 99 0.0 W 37 61 20 33 1002.1 1001.8 46.6
26/04:30am 0.1 -8.9 0.0 99 0.0 W 37 57 20 31 1002.3 1002.0 46.6
26/04:00am 0.4 -11.4 0.3 99 0.0 W 52 72 28 39 1002.1 1001.8 46.6
26/03:33am 0.3 -9.1 0.2 99 0.0 W 39 57 21 31 1002.5 1002.3 46.6
26/03:30am 0.4 -8.2 0.3 99 0.0 W 35 54 19 29 1002.5 1002.3 46.6
26/03:00am 0.7 -9.0 0.6 99 0.0 W 41 63 22 34 1003.0 1002.7 46.6
26/02:30am 0.7 -9.9 0.6 99 0.0 W 46 69 25 37 1003.0 1002.7 46.6
26/02:02am 1.4 -9.5 1.3 99 0.0 W 48 67 26 36 1002.8 1002.6 46.4
26/02:00am 1.4 -9.5 1.3 99 0.0 W 48 67 26 36 1003.1 1002.8 46.4
26/01:49am 2.0 -9.2 1.9 99 0.0 W 50 76 27 41 1002.8 1002.6 46.0
26/01:48am 2.0 -9.2 1.9 99 0.0 W 50 76 27 41 1002.8 1002.6 45.8
26/01:30am 1.7 -11.6 1.6 99 0.0 W 61 102 33 55 1002.6 1002.4 45.8
26/01:26am 1.9 -11.4 1.8 99 0.0 W 61 102 33 55 1002.3 1002.0 45.8
26/01:00am 3.0 -9.7 2.9 99 0.0 W 59 83 32 45 1002.4 1002.2 44.6
26/12:30am 4.3 -7.8 4.2 99 0.0 W 57 85 31 46 1002.2 1001.9 42.4
26/12:21am 4.7 -6.0 4.6 99 0.0 WNW 50 83 27 45 1002.4 1002.2 41.8
26/12:19am 4.8 -4.7 4.7 99 0.0 WNW 44 83 24 45 1002.1 1001.8 41.8
26/12:17am 5.2 -3.3 5.1 99 0.0 WNW 39 80 21 43 1002.2 1001.9 41.6
26/12:16am 5.4 -2.7 5.3 99 0.0 WNW 37 70 20 38 1002.8 1002.6 41.6
26/12:08am 5.3 -4.1 5.2 99 0.0 NW 44 93 24 50 1001.9 1001.7 39.4
26/12:04am 5.2 -5.0 5.1 99 0.0 NW 48 95 26 51 1002.2 1001.9 38.4
26/12:00am 5.1 -6.7 5.0 99 0.0 NW 56 95 30 51 1001.7 1001.5 37.8
 
Date/Time
EST
Temp
°C
App
Temp
°C
Dew
Point
°C
Rel
Hum
%
Delta-T
°C
Wind Press
QNH
hPa
Press
MSL
hPa
Rain since
9am
mm
Dir  Spd
km/h
Gust
km/h
Spd
kts
Gust
kts
25/11:51pm 5.1 -3.8 5.0 99 0.0 NW 41 95 22 51 1001.8 1001.6 37.4
25/11:49pm 5.4 -3.8 5.3 99 0.0 NW 43 80 23 43 1002.7 1002.5 37.4
25/11:48pm 5.4 -3.8 5.3 99 0.0 NW 43 80 23 43 1002.6 1002.4 37.4
25/11:40pm 5.3 -3.6 5.2 99 0.0 NW 41 80 22 43 1002.1 1001.8 36.2
25/11:30pm 5.4 -4.8 5.3 99 0.0 NW 48 91 26 49 1003.0 1002.7 35.4
25/11:28pm 5.4 -6.3 5.3 99 0.0 NW 56 98 30 53 1003.2 1003.0 35.4
25/11:10pm 5.4 -7.6 5.3 99 0.0 WNW 63 113 34 61 1003.4 1003.2 35.4
25/11:09pm 5.3 -7.8 5.2 99 0.0 WNW 63 113 34 61 1003.2 1003.0 35.4
25/11:02pm 5.2 -4.3 5.1 99 0.0 NW 44 113 24 61 1002.6 1002.4 35.4
25/11:00pm 5.3 -2.4 5.2 99 0.0 NW 35 91 19 49 1003.2 1003.0 35.4
25/10:58pm 5.4 -1.9 5.3 99 0.0 NW 33 82 18 44 1003.3 1003.1 35.2
25/10:30pm 5.1 -4.4 5.0 99 0.0 NNW 44 91 24 49 1003.4 1003.2 32.2
25/10:00pm 4.7 -4.3 4.6 99 0.0 NNW 41 76 22 41 1004.5 1004.3 30.6
25/09:30pm 4.5 -3.8 4.4 99 0.0 NNW 37 72 20 39 1005.7 1005.6 30.0
25/09:11pm 4.6 -1.6 4.5 99 0.0 NNW 26 57 14 31 1006.3 1006.2 30.0
25/09:03pm 4.4 -4.6 4.3 99 0.0 NW 41 87 22 47 1006.6 1006.5 30.0
25/09:00pm 4.5 -3.8 4.4 99 0.0 NW 37 87 20 47 1006.4 1006.3 30.0
25/08:59pm 4.5 -3.4 4.4 99 0.0 NW 35 87 19 47 1006.3 1006.2 30.0
25/08:43pm 4.7 -4.9 4.6 99 0.0 NNW 44 72 24 39 1006.9 1006.7 29.8
25/08:42pm 4.9 -4.4 4.8 99 0.0 NNW 43 72 23 39 1006.9 1006.7 29.8
25/08:38pm 5.1 -3.8 5.0 99 0.0 NNW 41 72 22 39 1006.7 1006.6 29.6
25/08:30pm 5.2 -2.2 5.1 99 0.0 NNW 33 82 18 44 1006.9 1006.7 28.6
25/08:27pm 5.2 -2.0 5.1 99 0.0 NNW 32 82 17 44 1006.9 1006.7 28.6
25/08:22pm 5.3 -1.9 5.2 99 0.0 NNW 32 59 17 32 1006.7 1006.6 28.4
25/08:00pm 5.3 -2.8 5.2 99 0.0 NW 37 74 20 40 1006.7 1006.6 26.2
25/07:57pm 5.2 -2.9 5.1 99 0.0 NW 37 74 20 40 1006.9 1006.7 26.0
25/07:33pm 5.4 -4.0 5.3 99 0.0 NW 44 89 24 48 1007.0 1006.9 25.8
25/07:30pm 5.4 -3.8 5.3 99 0.0 NW 43 89 23 48 1007.0 1006.9 25.6
25/07:28pm 5.3 -2.8 5.2 99 0.0 NW 37 89 20 48 1006.6 1006.5 25.6
25/07:27pm 5.5 -1.8 5.4 99 0.0 NW 33 67 18 36 1007.1 1007.0 25.6
25/07:01pm 5.3 -2.1 5.2 99 0.0 NNW 33 54 18 29 1007.6 1007.5 23.0
25/07:00pm 5.3 -2.4 5.2 99 0.0 NNW 35 54 19 29 1007.5 1007.4 22.8
25/06:30pm 5.2 -3.7 5.1 99 0.0 NNW 41 63 22 34 1007.9 1007.8 21.6
25/06:04pm 5.4 -4.4 5.3 99 0.0 NNW 46 87 25 47 1008.2 1008.1 21.6
25/06:00pm 5.6 -2.8 5.5 99 0.0 NNW 39 65 21 35 1008.4 1008.3 21.4
25/05:54pm 5.8 -1.3 5.7 99 0.0 NNW 32 59 17 32 1008.5 1008.5 21.4
25/05:30pm 6.0 -1.2 5.9 99 0.0 NW 33 70 18 38 1008.8 1008.7 16.8
25/05:00pm 6.0 -2.7 5.9 99 0.0 NNW 41 67 22 36 1008.8 1008.7 14.0
25/04:30pm 6.0 -3.7 5.9 99 0.0 NNW 46 74 25 40 1008.4 1008.3 12.0
25/04:00pm 5.7 -3.7 5.6 99 0.0 NNW 44 70 24 38 1009.5 1009.5 10.8
25/03:41pm 5.6 -2.4 5.5 99 0.0 NNW 37 57 20 31 1010.1 1010.1 10.4
25/03:30pm 5.5 -1.6 5.4 99 0.0 NNW 32 50 17 27 1009.8 1009.7 10.0
25/03:01pm 5.2 -3.7 5.1 99 0.0 NNW 41 63 22 34 1009.6 1009.6 9.6
25/03:00pm 5.1 -3.4 5.0 99 0.0 NNW 39 56 21 30 1009.6 1009.6 9.6
25/02:30pm 5.1 -3.4 5.0 99 0.0 NNW 39 57 21 31 1010.1 1010.1 9.4
25/02:00pm 5.2 -4.1 5.1 99 0.0 NNW 43 70 23 38 1011.0 1011.0 9.0
25/01:34pm 5.9 -1.3 5.8 99 0.0 NNW 33 59 18 32 1011.6 1011.7 9.0
25/01:30pm 5.9 -1.1 5.8 99 0.0 NNW 32 67 17 36 1011.5 1011.5 8.8
25/01:13pm 6.0 -1.6 5.9 99 0.0 WNW 35 54 19 29 1012.1 1012.1 8.4
25/01:00pm 6.1 0.2 6.0 99 0.0 NW 26 43 14 23 1012.3 1012.3 7.4
25/12:50pm 5.8 -0.5 5.7 99 0.0 NW 28 52 15 28 1012.3 1012.3 7.0
25/12:30pm 6.0 0.9 5.9 99 0.0 NW 22 37 12 20 1013.0 1013.0 6.0
25/12:00pm 5.5 0.3 5.4 99 0.0 NNW 22 43 12 23 1013.3 1013.4 4.8
25/11:45am 5.3 -1.1 5.2 99 0.0 NW 28 44 15 24 1013.4 1013.5 4.6
25/11:30am 5.2 -3.3 5.1 99 0.0 NW 39 59 21 32 1013.5 1013.6 4.6
25/11:00am 4.8 -3.0 4.7 99 0.0 WNW 35 54 19 29 1014.0 1014.1 4.0
25/10:31am 5.2 -1.6 5.1 99 0.0 WNW 30 50 16 27 1014.1 1014.2 2.6
25/10:30am 5.2 -1.6 5.1 99 0.0 WNW 30 44 16 24 1014.3 1014.4 2.6
25/10:12am 5.2 -1.2 5.1 99 0.0 WNW 28 52 15 28 1014.2 1014.3 2.2
25/10:00am 5.0 -1.1 4.9 99 0.0 NW 26 39 14 21 1014.2 1014.3 1.6
25/09:41am 4.7 -2.6 4.6 99 0.0 WNW 32 50 17 27 1014.1 1014.2 0.4
25/09:30am 4.6 -4.4 4.5 99 0.0 WNW 41 52 22 28 1014.1 1014.2 0.4
25/09:12am 4.6 -4.0 4.5 99 0.0 W 39 57 21 31 1014.1 1014.2 0.2
25/09:00am 4.9 -2.5 4.8 99 0.0 WNW 33 44 18 24 1014.3 1014.4 23.0
25/08:32am 4.7 -3.9 4.6 99 0.0 WNW 39 57 21 31 1014.4 1014.5 22.6
25/08:30am 4.6 -4.4 4.5 99 0.0 WNW 41 57 22 31 1014.5 1014.6 22.6
25/08:00am 4.8 -2.7 4.7 99 0.0 WNW 33 54 18 29 1014.7 1014.7 21.8
25/07:42am 4.9 -4.1 4.8 99 0.0 WNW 41 61 22 33 1014.1 1014.2 20.8
25/07:30am 4.9 -2.9 4.8 99 0.0 WNW 35 54 19 29 1014.1 1014.2 20.2
25/07:08am 4.8 -3.4 4.7 99 0.0 WNW 37 57 20 31 1014.0 1014.1 19.6
25/07:00am 4.8 -3.8 4.7 99 0.0 WNW 39 57 21 31 1013.7 1013.7 19.4
25/06:35am 4.7 -4.3 4.6 99 0.0 WNW 41 59 22 32 1014.1 1014.2 19.2
25/06:30am 4.5 -4.5 4.4 99 0.0 WNW 41 56 22 30 1014.0 1014.1 19.2
25/06:03am 4.6 -4.4 4.5 99 0.0 WNW 41 61 22 33 1014.4 1014.5 19.2
25/06:00am 4.6 -4.8 4.5 99 0.0 WNW 43 61 23 33 1014.4 1014.5 19.2
25/05:30am 4.6 -4.0 4.5 99 0.0 WNW 39 61 21 33 1014.2 1014.3 19.2
25/05:00am 4.5 -5.5 4.4 99 0.0 WNW 46 65 25 35 1014.0 1014.1 19.2
25/04:30am 4.5 -4.5 4.4 99 0.0 W 41 59 22 32 1014.4 1014.5 19.2
25/04:21am 4.5 -4.5 4.4 99 0.0 W 41 59 22 32 1014.3 1014.4 19.2
25/04:00am 4.2 -5.8 4.1 99 0.0 W 46 61 25 33 1014.3 1014.4 19.2
25/03:35am 4.7 -3.9 4.6 99 0.0 WNW 39 63 21 34 1014.5 1014.6 18.2
25/03:30am 4.6 -4.4 4.5 99 0.0 WNW 41 57 22 31 1014.7 1014.7 17.8
25/03:01am 4.7 -4.7 4.6 99 0.0 WNW 43 63 23 34 1014.8 1014.9 17.6
25/03:00am 4.6 -5.0 4.5 99 0.0 WNW 44 63 24 34 1014.5 1014.6 17.6
25/02:45am 4.5 -4.5 4.4 99 0.0 WNW 41 61 22 33 1015.0 1015.1 17.6
25/02:30am 4.2 -5.3 4.1 99 0.0 W 43 56 23 30 1015.1 1015.2 17.6
25/02:08am 4.1 -5.4 4.0 99 0.0 W 43 61 23 33 1015.3 1015.4 17.4
25/02:00am 4.1 -6.3 4.0 99 0.0 W 48 63 26 34 1015.1 1015.2 17.4
25/01:30am 4.4 -3.9 4.3 99 0.0 WNW 37 61 20 33 1015.2 1015.3 16.4
25/01:10am 4.4 -3.5 4.3 99 0.0 WNW 35 56 19 30 1015.9 1016.0 16.4
25/01:00am 4.3 -4.0 4.2 99 0.0 W 37 54 20 29 1015.6 1015.7 16.2
25/12:30am 4.5 -5.1 4.4 99 0.0 WNW 44 67 24 36 1015.4 1015.5 16.0
25/12:00am 5.5 -5.0 5.4 99 0.0 WNW 50 80 27 43 1015.0 1015.1 16.0
 
Date/Time
EST
Temp
°C
App
Temp
°C
Dew
Point
°C
Rel
Hum
%
Delta-T
°C
Wind Press
QNH
hPa
Press
MSL
hPa
Rain since
9am
mm
Dir  Spd
km/h
Gust
km/h
Spd
kts
Gust
kts
24/11:55pm 6.0 -4.4 5.9 99 0.0 WNW 50 80 27 43 1015.2 1015.3 16.0
24/11:52pm 5.9 -4.9 5.8 99 0.0 WNW 52 80 28 43 1015.0 1015.1 16.0
24/11:30pm 5.8 -2.6 5.7 99 0.0 WNW 39 70 21 38 1015.1 1015.2 13.4
24/11:09pm 6.2 -1.3 6.1 99 0.0 NW 35 82 19 44 1015.2 1015.3 13.4
24/11:00pm 6.3 -4.5 6.2 99 0.0 WNW 52 87 28 47 1015.4 1015.5 13.2
24/10:30pm 6.3 -3.7 6.2 99 0.0 NW 48 72 26 39 1015.4 1015.5 13.0
24/10:00pm 6.2 -3.1 6.1 99 0.0 WNW 44 69 24 37 1015.7 1015.8 12.4
24/09:30pm 6.0 -4.4 5.9 99 0.0 WNW 50 76 27 41 1015.9 1016.0 12.4
24/09:24pm 6.0 -4.8 5.9 99 0.0 WNW 52 72 28 39 1015.9 1016.0 12.2
24/09:15pm 6.1 -3.2 6.0 99 0.0 WNW 44 70 24 38 1015.7 1015.8 12.2
24/09:05pm 6.3 0.1 6.2 99 0.0 WNW 28 56 15 30 1016.1 1016.2 11.8
24/09:00pm 6.3 1.2 6.2 99 0.0 NW 22 46 12 25 1016.6 1016.7 11.6
24/08:30pm 6.3 -2.7 6.2 99 0.0 NW 43 72 23 39 1016.3 1016.5 9.2
24/08:00pm 6.0 -0.6 5.9 99 0.0 NW 30 63 16 34 1016.6 1016.7 8.0
24/07:46pm 5.9 -0.4 5.8 99 0.0 NW 28 56 15 30 1016.7 1016.8 7.2
24/07:30pm 5.8 1.0 5.7 99 0.0 NNW 20 41 11 22 1016.8 1016.9 6.8
24/07:00pm 5.6 -1.1 5.5 99 0.0 NW 30 63 16 34 1016.9 1017.0 6.8
24/06:41pm 5.5 -0.9 5.4 99 0.0 NW 28 48 15 26 1016.4 1016.6 6.6
24/06:30pm 5.5 -0.9 5.4 99 0.0 NNW 28 44 15 24 1016.7 1016.8 6.4
24/06:17pm 5.4 -1.9 5.3 99 0.0 NNW 33 59 18 32 1016.8 1016.9 6.4
24/06:16pm 5.4 -1.9 5.3 99 0.0 NNW 33 59 18 32 1016.8 1016.9 6.4
24/06:00pm 5.5 -1.2 5.4 99 0.0 NNW 30 50 16 27 1016.8 1016.9 6.0
24/05:30pm 5.2 -1.6 5.1 99 0.0 NW 30 54 16 29 1017.0 1017.1 6.0
24/05:00pm 5.3 -1.1 5.2 99 0.0 NW 28 50 15 27 1017.2 1017.4 6.0
24/04:33pm 5.6 -0.7 5.5 99 0.0 NW 28 50 15 27 1017.3 1017.5 6.0
24/04:30pm 5.7 -0.2 5.6 99 0.0 NW 26 48 14 26 1017.4 1017.6 6.0
24/04:01pm 5.4 -1.9 5.3 99 0.0 NW 33 52 18 28 1017.6 1017.7 6.0
24/04:00pm 5.5 -1.2 5.4 99 0.0 NW 30 46 16 25 1017.7 1017.8 6.0
24/03:40pm 5.6 -1.5 5.5 99 0.0 NW 32 50 17 27 1017.8 1017.9 6.0
24/03:30pm 5.1 -2.7 5.0 99 0.0 WNW 35 50 19 27 1017.7 1017.8 6.0
24/03:00pm 6.3 0.1 6.2 99 0.0 NW 28 48 15 26 1018.0 1018.2 6.0
24/02:44pm 6.6 -0.5 6.5 99 0.0 NW 33 50 18 27 1018.0 1018.2 5.8
24/02:30pm 7.1 2.2 7.0 99 0.0 NW 22 35 12 19 1018.3 1018.5 5.2
24/02:12pm 6.8 0.3 6.7 99 0.0 NW 30 50 16 27 1018.3 1018.5 4.4
24/02:00pm 6.9 0.5 6.8 99 0.0 NNW 30 46 16 25 1018.6 1018.7 4.4
24/01:40pm 7.1 1.1 7.0 99 0.0 NNW 28 48 15 26 1018.3 1018.5 4.4
24/01:30pm 6.7 2.3 6.6 99 0.0 NNW 19 33 10 18 1018.6 1018.7 4.4
24/01:03pm 6.8 1.5 6.7 99 0.0 NW 24 46 13 25 1019.3 1019.5 4.2
24/01:00pm 7.2 2.3 7.1 99 0.0 NW 22 43 12 23 1019.5 1019.7 4.2
24/12:30pm 6.7 2.1 6.6 99 0.0 NNW 20 32 11 17 1020.0 1020.2 2.8
24/12:00pm 6.3 0.5 6.2 99 0.0 NNW 26 39 14 21 1020.1 1020.4 2.6
24/11:30am 6.4 1.0 6.3 99 0.0 NNW 24 43 13 23 1020.5 1020.7 2.2
24/11:00am 6.5 2.1 6.4 99 0.0 NNW 19 30 10 16 1021.0 1021.3 1.6
24/10:30am 6.1 1.6 6.0 99 0.0 NNW 19 28 10 15 1021.5 1021.7 1.2
24/10:00am 6.1 2.0 6.0 99 0.0 NNW 17 24 9 13 1021.5 1021.7 0.6
24/09:30am 5.8 1.2 5.7 99 0.0 NNW 19 22 10 12 1021.5 1021.7 0.4
24/09:00am 5.5 0.9 5.4 99 0.0 NNW 19 22 10 12 1021.7 1022.0 6.8
24/08:30am 5.5 1.6 5.4 99 0.0 NNW 15 22 8 12 1021.8 1022.1 6.6
24/08:00am 5.5 2.0 5.4 99 0.0 NNW 13 17 7 9 1021.8 1022.1 6.4
24/07:30am 5.4 1.5 5.3 99 0.0 NNW 15 17 8 9 1021.7 1022.0 6.2
24/07:00am 5.3 1.7 5.2 99 0.0 NNW 13 19 7 10 1021.9 1022.2 6.0
24/06:30am 5.1 2.6 5.0 99 0.0 NW 7 11 4 6 1022.1 1022.4 5.8
24/06:00am 5.2 2.0 5.1 99 0.0 NNW 11 17 6 9 1022.2 1022.5 5.6
24/05:30am 5.3 2.5 5.2 99 0.0 NNW 9 13 5 7 1022.6 1022.9 5.6
24/05:00am 5.3 2.1 5.2 99 0.0 NW 11 13 6 7 1022.8 1023.1 5.4
24/04:30am 5.4 1.9 5.3 99 0.0 NNW 13 15 7 8 1023.0 1023.3 5.4
24/04:00am 5.2 1.2 5.1 99 0.0 NW 15 17 8 9 1023.2 1023.6 5.4
24/03:30am 5.1 1.5 5.0 99 0.0 NW 13 17 7 9 1023.2 1023.6 5.2
24/03:00am 5.2 1.6 5.1 99 0.0 NW 13 17 7 9 1023.6 1023.9 5.2
24/02:30am 5.5 1.2 5.4 99 0.0 NW 17 19 9 10 1023.9 1024.2 5.2
24/02:00am 5.7 1.9 5.6 99 0.0 NW 15 17 8 9 1024.4 1024.7 5.2
24/01:30am 5.7 1.9 5.6 99 0.0 NW 15 19 8 10 1024.6 1024.9 5.2
24/01:00am 5.8 2.7 5.7 99 0.0 NNW 11 15 6 8 1024.8 1025.2 5.0
24/12:30am 6.2 3.2 6.1 99 0.0 NNW 11 15 6 8 1024.9 1025.3 5.0
24/12:00am 6.2 3.2 6.1 99 0.0 NNW 11 13 6 7 1025.3 1025.6 4.4
 
Date/Time
EST
Temp
°C
App
Temp
°C
Dew
Point
°C
Rel
Hum
%
Delta-T
°C
Wind Press
QNH
hPa
Press
MSL
hPa
Rain since
9am
mm
Dir  Spd
km/h
Gust
km/h
Spd
kts
Gust
kts
23/11:30pm 6.5 4.0 6.4 99 0.0 N 9 15 5 8 1025.4 1025.7 4.2
23/11:00pm 6.3 4.3 6.2 99 0.0 NNW 6 11 3 6 1025.6 1026.0 3.6
23/10:30pm 6.2 3.6 6.1 99 0.0 W 9 13 5 7 1025.8 1026.2 3.6

Other formats

Comma delimited format used in spreadsheet applications
http://www.bom.gov.au/fwo/IDT60801/IDT60801.95952.axf

JavaScript Object Notation format (JSON) in row-major order
http://www.bom.gov.au/fwo/IDT60801/IDT60801.95952.json

Data quality

Most of these data are generated automatically and are frequently updated. Quality checks on data are not normally performed. It is possible for incorrect values to appear. Refer to information at About Latest Weather Observations and please check the disclaimer before using these data.